Time;durP1;ratioP1;P1;durP2;ratioP2;P2;SDS_P1;SDS_P2;PMS_P1;PMS_P2;Temp;Humidity;BMP_temperature;BMP_pressure;BME280_temperature;BME280_humidity;BME280_pressure;Samples;Min_cycle;Max_cycle;Signal;HPM_P1;HPM_P2
2023/08/13 00:02:20;;;;;;;;;;;;;;;26.32;100.00;99939.88;5036119;28;19924;-72
2023/08/13 00:04:45;;;;;;;;;;;;;;;26.32;100.00;99938.00;5053866;28;19978;-73
2023/08/13 00:07:11;;;;;;;;;;;;;;;26.27;100.00;99939.78;5056501;28;21311;-72
2023/08/13 00:09:36;;;;;;;;;;;;;;;26.22;100.00;99940.41;5053212;28;20015;-72
2023/08/13 00:12:01;;;;;;;;;;;;;;;26.15;100.00;99950.56;5054186;28;19978;-71
2023/08/13 00:14:27;;;;;;;;;;;;;;;26.18;100.00;99955.47;5053796;28;19971;-73
2023/08/13 00:16:52;;;;;;;;;;;;;;;26.08;100.00;99953.38;5054039;28;20309;-72
2023/08/13 00:19:18;;;;;;;;;;;;;;;25.97;100.00;99946.06;5053827;28;19921;-72
2023/08/13 00:21:43;;;;;;;;;;;;;;;25.92;100.00;99954.03;5053725;28;19954;-72
2023/08/13 00:24:08;;;;;;;;;;;;;;;25.89;100.00;99942.88;5053249;28;19920;-72
2023/08/13 00:26:34;;;;;;;;;;;;;;;25.87;100.00;99944.97;5053372;28;19974;-72
2023/08/13 00:28:59;;;;;;;;;;;;;;;25.81;100.00;99945.91;5053731;28;19928;-73
2023/08/13 00:31:24;;;;;;;;;;;;;;;25.65;100.00;99947.41;5053429;28;19929;-72
2023/08/13 00:33:50;;;;;;;;;;;;;;;25.56;100.00;99944.22;5053621;28;19928;-72
2023/08/13 00:36:15;;;;;;;;;;;;;;;25.51;100.00;99948.63;5042937;28;19925;-72
2023/08/13 00:38:41;;;;;;;;;;;;;;;25.49;100.00;99948.88;5033539;28;19986;-72
2023/08/13 00:41:06;;;;;;;;;;;;;;;25.35;100.00;99946.56;5053478;28;20004;-72
2023/08/13 00:43:32;;;;;;;;;;;;;;;25.38;100.00;99952.34;5053255;28;19928;-72
2023/08/13 00:45:57;;;;;;;;;;;;;;;25.36;100.00;99949.03;5035310;28;19922;-73
2023/08/13 00:48:23;;;;;;;;;;;;;;;25.39;100.00;99953.19;5053004;28;20023;-73
2023/08/13 00:50:48;;;;;;;;;;;;;;;25.43;100.00;99949.78;5035548;28;20015;-72
2023/08/13 00:53:14;;;;;;;;;;;;;;;25.44;100.00;99956.00;5052787;28;19972;-73
2023/08/13 00:55:39;;;;;;;;;;;;;;;25.46;100.00;99960.13;5051734;28;20268;-73
2023/08/13 00:58:04;;;;;;;;;;;;;;;25.48;100.00;99959.91;5051618;28;19921;-73
2023/08/13 01:00:30;;;;;;;;;;;;;;;25.50;100.00;99963.19;5050763;28;19925;-72
2023/08/13 01:02:56;;;;;;;;;;;;;;;25.53;100.00;99960.03;5051029;28;19990;-71
2023/08/13 01:05:27;;;;;;;;;;;;;;;25.56;100.00;99964.97;5052645;28;19968;-72
2023/08/13 01:07:52;;;;;;;;;;;;;;;25.57;100.00;99959.34;5056880;28;20062;-72
2023/08/13 01:10:22;;;;;;;;;;;;;;;25.61;100.00;99951.63;5052695;28;20453;-72
2023/08/13 01:13:06;;;;;;;;;;;;;;;25.63;100.00;99949.50;5055184;28;20420;-71
2023/08/13 01:15:33;;;;;;;;;;;;;;;25.65;100.00;99950.09;5051081;28;19928;-72
2023/08/13 01:17:59;;;;;;;;;;;;;;;25.67;100.00;99951.53;5050722;28;20377;-72
2023/08/13 01:20:50;;;;;;;;;;;;;;;25.68;100.00;99953.16;5053053;28;19927;-72
2023/08/13 01:23:16;;;;;;;;;;;;;;;25.68;100.00;99958.56;5049554;28;19931;-72
2023/08/13 01:25:45;;;;;;;;;;;;;;;25.70;100.00;99952.94;5052782;28;19928;-72
2023/08/13 01:28:19;;;;;;;;;;;;;;;25.68;100.00;99961.28;5052779;28;19943;-71
2023/08/13 01:30:48;;;;;;;;;;;;;;;25.66;100.00;99952.59;5053110;28;20162;-71
2023/08/13 01:33:26;;;;;;;;;;;;;;;25.64;100.00;99951.16;5035336;28;20377;-71
2023/08/13 01:36:00;;;;;;;;;;;;;;;25.56;100.00;99955.03;5039762;28;19928;-72
2023/08/13 01:38:26;;;;;;;;;;;;;;;25.55;100.00;99947.94;5051859;28;19925;-72
2023/08/13 01:40:51;;;;;;;;;;;;;;;25.53;100.00;99955.44;5052318;28;20357;-71
2023/08/13 01:43:17;;;;;;;;;;;;;;;25.50;100.00;99950.53;5055992;28;20385;-72
2023/08/13 01:45:42;;;;;;;;;;;;;;;25.43;100.00;99954.38;5042345;28;20293;-73
2023/08/13 01:48:08;;;;;;;;;;;;;;;25.31;100.00;99951.63;5052278;28;19926;-71
2023/08/13 01:50:34;;;;;;;;;;;;;;;25.18;100.00;99954.50;5041221;28;20008;-72
2023/08/13 01:53:00;;;;;;;;;;;;;;;25.13;100.00;99952.47;5066484;23;19975;-72
2023/08/13 01:55:25;;;;;;;;;;;;;;;25.06;100.00;99961.69;5083318;28;20355;-72
2023/08/13 01:57:51;;;;;;;;;;;;;;;25.01;100.00;99964.25;5079318;28;19970;-72
2023/08/13 02:00:16;;;;;;;;;;;;;;;24.83;100.00;99955.09;5057740;28;19996;-72
2023/08/13 02:02:42;;;;;;;;;;;;;;;24.82;100.00;99953.44;5080532;28;20349;-73
2023/08/13 02:05:08;;;;;;;;;;;;;;;24.86;100.00;99943.00;5080181;28;19928;-73
2023/08/13 02:07:34;;;;;;;;;;;;;;;24.81;100.00;99949.09;5080427;28;19927;-73
2023/08/13 02:09:59;;;;;;;;;;;;;;;24.88;100.00;99951.72;5082501;28;19920;-72
2023/08/13 02:12:24;;;;;;;;;;;;;;;24.88;100.00;99947.19;5082858;28;19933;-72
2023/08/13 02:14:50;;;;;;;;;;;;;;;24.95;100.00;99951.66;5080475;28;19991;-71
2023/08/13 02:17:15;;;;;;;;;;;;;;;24.91;100.00;99951.31;5062099;28;19924;-72
2023/08/13 02:19:41;;;;;;;;;;;;;;;24.95;100.00;99962.47;5084036;28;19974;-72
2023/08/13 02:22:07;;;;;;;;;;;;;;;24.91;100.00;99955.88;5081448;28;19970;-71
2023/08/13 02:24:33;;;;;;;;;;;;;;;24.77;100.00;99956.00;5079974;28;19920;-72
2023/08/13 02:26:58;;;;;;;;;;;;;;;24.55;100.00;99952.09;5065813;28;19965;-71
2023/08/13 02:29:24;;;;;;;;;;;;;;;24.23;100.00;99958.63;5081048;28;19928;-72
2023/08/13 02:31:49;;;;;;;;;;;;;;;24.20;100.00;99959.91;5081603;28;19973;-72
2023/08/13 02:34:15;;;;;;;;;;;;;;;24.26;100.00;99963.59;5083246;28;19949;-72
2023/08/13 02:36:40;;;;;;;;;;;;;;;24.31;100.00;99961.06;5080446;28;19920;-72
2023/08/13 02:39:07;;;;;;;;;;;;;;;24.36;100.00;99953.13;5083470;28;20001;-71
2023/08/13 02:41:32;;;;;;;;;;;;;;;24.35;100.00;99951.47;5079663;28;20327;-72
2023/08/13 02:43:58;;;;;;;;;;;;;;;24.30;100.00;99954.00;5082544;28;20011;-73
2023/08/13 02:46:25;;;;;;;;;;;;;;;24.34;100.00;99944.41;5081299;28;19965;-72
2023/08/13 02:48:51;;;;;;;;;;;;;;;24.37;100.00;99943.97;5083256;28;20303;-72
2023/08/13 02:51:16;;;;;;;;;;;;;;;24.31;100.00;99942.19;5080708;28;19965;-72
2023/08/13 02:53:42;;;;;;;;;;;;;;;24.22;100.00;99940.78;5084492;28;19989;-72
2023/08/13 02:56:07;;;;;;;;;;;;;;;24.26;100.00;99948.25;5080074;28;19927;-72
2023/08/13 02:58:33;;;;;;;;;;;;;;;24.22;100.00;99951.59;5064374;28;19926;-72
2023/08/13 03:00:59;;;;;;;;;;;;;;;24.04;100.00;99950.47;5079989;28;19966;-72
2023/08/13 03:03:24;;;;;;;;;;;;;;;24.09;100.00;99947.13;5096770;28;19924;-72
2023/08/13 03:05:50;;;;;;;;;;;;;;;24.13;100.00;99947.50;5082554;28;20390;-72
2023/08/13 03:08:15;;;;;;;;;;;;;;;24.06;100.00;99952.94;5064499;28;19927;-72
2023/08/13 03:10:40;;;;;;;;;;;;;;;24.02;100.00;99947.19;5080693;28;19956;-72
2023/08/13 03:13:06;;;;;;;;;;;;;;;23.98;100.00;99959.44;5083705;28;19920;-71
2023/08/13 03:15:31;;;;;;;;;;;;;;;23.93;100.00;99958.44;5079590;28;19943;-71
2023/08/13 03:17:57;;;;;;;;;;;;;;;23.84;100.00;99960.59;5081718;28;19919;-71
2023/08/13 03:20:24;;;;;;;;;;;;;;;23.76;100.00;99962.72;5079093;28;19931;-72
2023/08/13 03:22:49;;;;;;;;;;;;;;;23.64;100.00;99968.81;5080604;28;20011;-71
2023/08/13 03:25:15;;;;;;;;;;;;;;;23.61;100.00;99954.97;5081629;28;19978;-72
2023/08/13 03:27:41;;;;;;;;;;;;;;;23.61;100.00;99952.25;5062855;28;20279;-72
2023/08/13 03:30:11;;;;;;;;;;;;;;;23.63;100.00;99958.25;5064277;28;21253;-72
2023/08/13 03:32:37;;;;;;;;;;;;;;;23.67;100.00;99954.91;5064212;28;20288;-71
2023/08/13 03:35:02;;;;;;;;;;;;;;;23.76;100.00;99952.75;5080351;28;19925;-71
2023/08/13 03:37:28;;;;;;;;;;;;;;;23.72;100.00;99948.88;5080876;28;19928;-71
2023/08/13 03:39:54;;;;;;;;;;;;;;;23.70;100.00;99950.13;5082959;28;19927;-72
2023/08/13 03:42:19;;;;;;;;;;;;;;;23.74;100.00;99954.84;5085847;28;19945;-72
2023/08/13 03:44:44;;;;;;;;;;;;;;;23.73;100.00;99958.59;5083567;28;19931;-71
2023/08/13 03:47:10;;;;;;;;;;;;;;;23.70;100.00;99959.03;5086998;28;19927;-72
2023/08/13 03:49:35;;;;;;;;;;;;;;;23.69;100.00;99960.06;5082277;28;20015;-72
2023/08/13 03:52:01;;;;;;;;;;;;;;;23.69;100.00;99957.38;5085715;28;19921;-71
2023/08/13 03:54:26;;;;;;;;;;;;;;;23.63;100.00;99963.63;5085273;28;19926;-72
2023/08/13 03:56:52;;;;;;;;;;;;;;;23.56;100.00;99969.06;5084484;28;19965;-72
2023/08/13 03:59:17;;;;;;;;;;;;;;;23.39;100.00;99967.06;5066867;28;19920;-72
2023/08/13 04:01:43;;;;;;;;;;;;;;;23.42;100.00;99966.63;5066680;28;19920;-72
2023/08/13 04:04:08;;;;;;;;;;;;;;;23.46;100.00;99967.84;5083467;28;19981;-72
2023/08/13 04:06:34;;;;;;;;;;;;;;;23.49;100.00;99972.84;5084600;28;19931;-72
2023/08/13 04:08:59;;;;;;;;;;;;;;;23.59;100.00;99973.19;5081422;28;19920;-73
2023/08/13 04:11:25;;;;;;;;;;;;;;;23.62;100.00;99978.16;5101129;28;20334;-72
2023/08/13 04:13:50;;;;;;;;;;;;;;;23.67;100.00;99975.66;5084931;28;19956;-72
2023/08/13 04:16:16;;;;;;;;;;;;;;;23.64;100.00;99976.88;5079850;28;19956;-72
2023/08/13 04:18:44;;;;;;;;;;;;;;;23.72;100.00;99977.69;5082840;28;19961;-72
2023/08/13 04:21:10;;;;;;;;;;;;;;;23.67;100.00;99983.72;5084423;28;19928;-72
2023/08/13 04:23:35;;;;;;;;;;;;;;;23.73;100.00;99980.16;5082129;28;19928;-72
2023/08/13 04:26:00;;;;;;;;;;;;;;;23.74;100.00;99987.19;5086007;28;19920;-72
2023/08/13 04:28:26;;;;;;;;;;;;;;;23.74;100.00;99986.38;5082077;28;19924;-72
2023/08/13 04:30:51;;;;;;;;;;;;;;;23.78;100.00;99988.41;5080825;28;19920;-73
2023/08/13 04:33:17;;;;;;;;;;;;;;;23.82;100.00;99981.53;5079002;28;19921;-72
2023/08/13 04:35:43;;;;;;;;;;;;;;;23.82;100.00;99978.84;5080181;28;19920;-72
2023/08/13 04:38:09;;;;;;;;;;;;;;;23.83;100.00;99980.50;5064520;28;19929;-72
2023/08/13 04:40:39;;;;;;;;;;;;;;;23.84;100.00;99976.75;5081942;28;20700;-72
2023/08/13 04:43:05;;;;;;;;;;;;;;;23.88;100.00;99977.97;5082191;28;19974;-72
2023/08/13 04:45:31;;;;;;;;;;;;;;;23.90;100.00;99975.88;5084456;28;19920;-72
2023/08/13 04:47:56;;;;;;;;;;;;;;;23.88;100.00;99983.34;5080779;28;19967;-72
2023/08/13 04:50:22;;;;;;;;;;;;;;;23.86;100.00;99982.75;5082232;28;19916;-71
2023/08/13 04:52:47;;;;;;;;;;;;;;;23.78;100.00;99972.25;5074323;28;19936;-72
2023/08/13 04:55:15;;;;;;;;;;;;;;;23.77;100.00;99980.53;5083048;28;19920;-72
2023/08/13 04:57:42;;;;;;;;;;;;;;;23.73;100.00;99988.25;5082066;28;21472;-71
2023/08/13 05:00:09;;;;;;;;;;;;;;;23.68;100.00;99988.88;5100262;28;19920;-72
2023/08/13 05:02:38;;;;;;;;;;;;;;;23.73;100.00;99984.72;5081207;28;20292;-72
2023/08/13 05:05:04;;;;;;;;;;;;;;;23.72;100.00;99983.91;5066096;28;19951;-72
2023/08/13 05:07:30;;;;;;;;;;;;;;;23.64;100.00;99986.84;5065249;28;19920;-70
2023/08/13 05:09:56;;;;;;;;;;;;;;;23.64;100.00;99992.22;5064387;28;20292;-71
2023/08/13 05:12:21;;;;;;;;;;;;;;;23.60;100.00;99991.84;5079256;28;19921;-72
2023/08/13 05:14:46;;;;;;;;;;;;;;;23.64;100.00;99993.06;5065909;28;19920;-72
2023/08/13 05:17:17;;;;;;;;;;;;;;;23.64;100.00;99992.22;5046641;28;19935;-72
2023/08/13 05:19:43;;;;;;;;;;;;;;;23.70;100.00;100001.31;5067548;28;19921;-72
2023/08/13 05:22:08;;;;;;;;;;;;;;;23.72;100.00;99994.66;5080512;28;19989;-72
2023/08/13 05:24:34;;;;;;;;;;;;;;;23.77;100.00;100002.94;5063894;28;19974;-72
2023/08/13 05:26:59;;;;;;;;;;;;;;;23.73;100.00;100003.59;5084062;28;19920;-72
2023/08/13 05:29:25;;;;;;;;;;;;;;;23.72;100.00;100010.84;5081513;28;19930;-72
2023/08/13 05:31:50;;;;;;;;;;;;;;;23.67;100.00;100008.81;5077243;28;19920;-72
2023/08/13 05:34:16;;;;;;;;;;;;;;;23.67;100.00;99997.19;5084281;28;19924;-71
2023/08/13 05:36:41;;;;;;;;;;;;;;;23.42;100.00;99998.97;5080071;28;20287;-72
2023/08/13 05:39:07;;;;;;;;;;;;;;;23.55;100.00;100009.69;5082554;28;19920;-72
2023/08/13 05:41:33;;;;;;;;;;;;;;;23.61;100.00;100019.63;5082685;28;20230;-71
2023/08/13 05:43:59;;;;;;;;;;;;;;;23.69;100.00;100013.94;5082252;28;19928;-73
2023/08/13 05:46:25;;;;;;;;;;;;;;;23.73;100.00;100017.88;5083028;28;19924;-73
2023/08/13 05:48:50;;;;;;;;;;;;;;;23.82;100.00;100021.97;5099692;28;19920;-73
2023/08/13 05:51:16;;;;;;;;;;;;;;;23.81;100.00;100024.88;5079131;28;19980;-72
2023/08/13 05:53:41;;;;;;;;;;;;;;;23.76;100.00;100022.81;5085858;28;20576;-72
2023/08/13 05:56:07;;;;;;;;;;;;;;;23.70;100.00;100034.47;5081444;28;20000;-72
2023/08/13 05:58:32;;;;;;;;;;;;;;;23.65;100.00;100026.22;5082231;28;19959;-71
2023/08/13 06:00:58;;;;;;;;;;;;;;;23.70;100.00;100021.00;5084421;28;19920;-71
2023/08/13 06:03:23;;;;;;;;;;;;;;;23.64;100.00;100035.34;5082104;28;19920;-70
2023/08/13 06:05:49;;;;;;;;;;;;;;;23.62;100.00;100026.66;5082794;28;19927;-71
2023/08/13 06:08:14;;;;;;;;;;;;;;;23.66;100.00;100027.88;5083081;28;19920;-71
2023/08/13 06:10:40;;;;;;;;;;;;;;;23.63;100.00;100030.97;5078459;28;19924;-73
2023/08/13 06:13:06;;;;;;;;;;;;;;;23.68;100.00;100031.97;5080962;28;19936;-72
2023/08/13 06:15:31;;;;;;;;;;;;;;;23.74;100.00;100029.50;5078864;28;19924;-72
2023/08/13 06:17:57;;;;;;;;;;;;;;;23.77;100.00;100035.25;5082115;28;19920;-71
2023/08/13 06:20:23;;;;;;;;;;;;;;;23.62;100.00;100026.66;5082930;28;19920;-69
2023/08/13 06:22:49;;;;;;;;;;;;;;;23.66;100.00;100033.25;5072553;28;20246;-71
2023/08/13 06:25:14;;;;;;;;;;;;;;;23.73;100.00;100028.66;5082515;28;19928;-72
2023/08/13 06:27:40;;;;;;;;;;;;;;;23.65;100.00;100031.59;5078793;28;20014;-72
2023/08/13 06:30:05;;;;;;;;;;;;;;;23.60;100.00;100023.34;5078340;28;20007;-72
2023/08/13 06:32:31;;;;;;;;;;;;;;;23.54;100.00;100029.59;5082619;28;19920;-71
2023/08/13 06:34:56;;;;;;;;;;;;;;;23.58;100.00;100038.88;5080584;28;20019;-71
2023/08/13 06:37:22;;;;;;;;;;;;;;;23.64;100.00;100041.53;5082294;28;19971;-72
2023/08/13 06:39:47;;;;;;;;;;;;;;;23.73;100.00;100047.53;5077881;28;19927;-71
2023/08/13 06:42:13;;;;;;;;;;;;;;;23.75;100.00;100048.13;5078324;28;19921;-72
2023/08/13 06:44:38;;;;;;;;;;;;;;;23.87;100.00;100043.69;5079398;28;19920;-72
2023/08/13 06:47:04;;;;;;;;;;;;;;;23.90;100.00;100054.06;5081701;28;20028;-71
2023/08/13 06:49:29;;;;;;;;;;;;;;;24.01;100.00;100047.97;5079930;28;19921;-71
2023/08/13 06:51:57;;;;;;;;;;;;;;;24.08;100.00;100043.34;5083832;28;19920;-72
2023/08/13 06:54:22;;;;;;;;;;;;;;;24.19;100.00;100047.25;5086914;28;20370;-71
2023/08/13 06:56:48;;;;;;;;;;;;;;;24.34;100.00;100039.63;5078825;28;19927;-73
2023/08/13 06:59:13;;;;;;;;;;;;;;;24.47;100.00;100041.41;5082025;28;20018;-72
2023/08/13 07:01:39;;;;;;;;;;;;;;;24.62;100.00;100044.59;5082544;28;19920;-72
2023/08/13 07:04:06;;;;;;;;;;;;;;;24.69;100.00;100034.53;5081259;28;19924;-69
2023/08/13 07:06:31;;;;;;;;;;;;;;;24.79;100.00;100034.88;5077378;28;19921;-72
2023/08/13 07:08:57;;;;;;;;;;;;;;;24.92;100.00;100038.53;5079850;28;19927;-72
2023/08/13 07:11:22;;;;;;;;;;;;;;;25.08;100.00;100027.13;5083784;28;19974;-71
2023/08/13 07:13:50;;;;;;;;;;;;;;;25.24;100.00;100037.31;5082824;28;19920;-73
2023/08/13 07:16:16;;;;;;;;;;;;;;;25.38;100.00;100037.97;5081738;28;19916;-71
2023/08/13 07:18:42;;;;;;;;;;;;;;;25.52;100.00;100034.84;5100975;28;19935;-71
2023/08/13 07:21:08;;;;;;;;;;;;;;;25.61;100.00;100027.31;5086475;28;19920;-71
2023/08/13 07:23:34;;;;;;;;;;;;;;;25.71;100.00;100034.84;5083872;28;20472;-72
2023/08/13 07:26:02;;;;;;;;;;;;;;;25.76;100.00;100041.22;5066616;28;19920;-72
2023/08/13 07:28:29;;;;;;;;;;;;;;;25.77;100.00;100033.94;5083546;28;19921;-73
2023/08/13 07:30:54;;;;;;;;;;;;;;;25.78;100.00;100038.28;5086036;28;20286;-72
2023/08/13 07:33:19;;;;;;;;;;;;;;;25.77;100.00;100036.63;5086475;28;20014;-72
2023/08/13 07:35:45;;;;;;;;;;;;;;;25.74;100.00;100031.69;5083761;28;20005;-73
2023/08/13 07:38:10;;;;;;;;;;;;;;;25.68;100.00;100030.75;5084773;28;19927;-72
2023/08/13 07:40:36;;;;;;;;;;;;;;;25.41;100.00;100038.34;5085741;28;19927;-72
2023/08/13 07:43:01;;;;;;;;;;;;;;;25.36;100.00;100029.25;5084568;28;19917;-73
2023/08/13 07:45:29;;;;;;;;;;;;;;;25.51;100.00;100041.31;5083646;28;19921;-70
2023/08/13 07:47:55;;;;;;;;;;;;;;;25.58;100.00;100041.25;5083699;28;20316;-70
2023/08/13 07:50:20;;;;;;;;;;;;;;;25.65;100.00;100033.88;5085465;28;19980;-69
2023/08/13 07:52:46;;;;;;;;;;;;;;;25.68;100.00;100042.34;5088200;28;19924;-69
2023/08/13 07:55:11;;;;;;;;;;;;;;;25.78;100.00;100043.69;5083203;28;19974;-68
2023/08/13 07:57:37;;;;;;;;;;;;;;;25.85;100.00;100039.03;5084257;28;19921;-69
2023/08/13 08:00:05;;;;;;;;;;;;;;;25.88;100.00;100038.56;5084579;28;19921;-71
2023/08/13 08:02:37;;;;;;;;;;;;;;;25.97;100.00;100029.06;5080687;28;19956;-71
2023/08/13 08:05:05;;;;;;;;;;;;;;;26.08;100.00;100030.97;5085661;28;20009;-70
2023/08/13 08:07:31;;;;;;;;;;;;;;;26.17;100.00;100021.44;5086061;28;20006;-71
2023/08/13 08:09:56;;;;;;;;;;;;;;;26.23;100.00;100025.97;5084144;28;19966;-71
2023/08/13 08:12:21;;;;;;;;;;;;;;;26.28;100.00;100026.09;5085132;28;20363;-72
2023/08/13 08:14:47;;;;;;;;;;;;;;;26.30;100.00;100026.69;5085691;28;19928;-71
2023/08/13 08:17:12;;;;;;;;;;;;;;;26.38;100.00;100034.47;5083071;28;19935;-73
2023/08/13 08:19:37;;;;;;;;;;;;;;;26.41;100.00;100027.75;5081946;28;19920;-72
2023/08/13 08:22:03;;;;;;;;;;;;;;;26.43;100.00;100025.63;5082669;28;19920;-71
2023/08/13 08:24:28;;;;;;;;;;;;;;;26.37;100.00;100024.69;5066138;28;20288;-72
2023/08/13 08:26:54;;;;;;;;;;;;;;;26.42;100.00;100019.41;5085723;28;19919;-70
2023/08/13 08:29:19;;;;;;;;;;;;;;;26.49;100.00;100028.25;5082346;28;19920;-72
2023/08/13 08:31:44;;;;;;;;;;;;;;;26.56;100.00;100024.59;5083269;28;19989;-72
2023/08/13 08:34:10;;;;;;;;;;;;;;;26.64;100.00;100027.75;5084489;28;20317;-71
2023/08/13 08:36:35;;;;;;;;;;;;;;;26.73;100.00;100030.94;5082674;28;19921;-71
2023/08/13 08:39:01;;;;;;;;;;;;;;;26.77;100.00;100023.97;5085664;28;19920;-72
2023/08/13 08:41:27;;;;;;;;;;;;;;;26.86;100.00;100028.00;5082198;28;19973;-71
2023/08/13 08:43:54;;;;;;;;;;;;;;;26.97;100.00;100029.88;5080536;28;19981;-72
2023/08/13 08:46:19;;;;;;;;;;;;;;;27.03;100.00;100033.53;5085340;28;20034;-71
2023/08/13 08:48:45;;;;;;;;;;;;;;;27.02;100.00;100021.88;5081097;28;19970;-72
2023/08/13 08:51:10;;;;;;;;;;;;;;;27.09;100.00;100022.56;5082997;28;20015;-71
2023/08/13 08:53:37;;;;;;;;;;;;;;;27.09;100.00;100019.84;5085879;28;19966;-72
2023/08/13 08:56:02;;;;;;;;;;;;;;;27.06;100.00;100020.31;5081821;28;19920;-72
2023/08/13 08:58:27;;;;;;;;;;;;;;;27.10;100.00;100010.63;5084739;28;20453;-72
2023/08/13 09:00:59;;;;;;;;;;;;;;;27.15;100.00;100016.19;5081017;28;19920;-72
2023/08/13 09:03:25;;;;;;;;;;;;;;;27.21;100.00;100015.22;5079331;28;19924;-72
2023/08/13 09:05:51;;;;;;;;;;;;;;;27.26;100.00;100009.91;5083548;28;19920;-72
2023/08/13 09:08:19;;;;;;;;;;;;;;;27.27;100.00;100008.81;5084150;28;19927;-72
2023/08/13 09:10:44;;;;;;;;;;;;;;;27.32;100.00;100013.53;5078271;28;19921;-72
2023/08/13 09:13:10;;;;;;;;;;;;;;;27.30;100.00;100016.50;5084876;28;19927;-72
2023/08/13 09:15:53;;;;;;;;;;;;;;;27.22;100.00;100014.13;5081972;28;20289;-72
2023/08/13 09:18:19;;;;;;;;;;;;;;;27.27;100.00;100005.31;5079958;28;19916;-72
2023/08/13 09:20:45;;;;;;;;;;;;;;;27.34;100.00;100005.16;5076608;28;20011;-72
2023/08/13 09:23:11;;;;;;;;;;;;;;;27.38;100.00;100000.91;5081730;28;19916;-72
2023/08/13 09:25:37;;;;;;;;;;;;;;;27.46;100.00;100000.50;5082925;28;19938;-72
2023/08/13 09:28:02;;;;;;;;;;;;;;;27.54;100.00;99989.31;5082891;28;19920;-72
2023/08/13 09:30:31;;;;;;;;;;;;;;;27.57;100.00;99983.41;5079596;28;19928;-73
2023/08/13 09:32:57;;;;;;;;;;;;;;;27.61;100.00;99987.28;5082939;28;19920;-72
2023/08/13 09:35:23;;;;;;;;;;;;;;;27.65;100.00;99986.56;5080606;28;20297;-73
2023/08/13 09:37:48;;;;;;;;;;;;;;;27.72;100.00;99991.00;5076016;28;19931;-71
2023/08/13 09:40:13;;;;;;;;;;;;;;;27.75;100.00;99985.91;5082254;28;19945;-72
2023/08/13 09:42:41;;;;;;;;;;;;;;;27.81;100.00;99984.94;5079920;28;19920;-72
2023/08/13 09:45:09;;;;;;;;;;;;;;;27.88;100.00;99980.16;5081766;28;19921;-72
2023/08/13 09:47:36;;;;;;;;;;;;;;;27.94;100.00;99981.06;5082858;28;20027;-72
2023/08/13 09:50:02;;;;;;;;;;;;;;;27.99;100.00;99970.31;5080284;28;19920;-72
2023/08/13 09:52:29;;;;;;;;;;;;;;;28.03;100.00;99972.31;5083013;28;19968;-72
2023/08/13 09:54:55;;;;;;;;;;;;;;;28.08;100.00;99968.84;5082449;28;19924;-72
2023/08/13 09:57:21;;;;;;;;;;;;;;;28.14;100.00;99967.06;5080827;28;19971;-72
2023/08/13 09:59:48;;;;;;;;;;;;;;;28.18;100.00;99962.78;5079170;28;20402;-71
2023/08/13 10:02:14;;;;;;;;;;;;;;;28.22;100.00;99961.22;5080313;28;20428;-72
2023/08/13 10:04:40;;;;;;;;;;;;;;;28.26;100.00;99963.19;5082077;28;20047;-72
2023/08/13 10:07:06;;;;;;;;;;;;;;;28.32;100.00;99959.50;5082469;28;20372;-71
2023/08/13 10:09:34;;;;;;;;;;;;;;;28.36;100.00;99957.09;5079929;28;19928;-73
2023/08/13 10:12:01;;;;;;;;;;;;;;;28.41;100.00;99958.00;5082035;28;19920;-70
2023/08/13 10:14:27;;;;;;;;;;;;;;;28.39;100.00;99953.91;5082763;28;20454;-72
2023/08/13 10:16:52;;;;;;;;;;;;;;;28.42;100.00;99942.53;5079263;28;20376;-72
2023/08/13 10:19:19;;;;;;;;;;;;;;;28.47;100.00;99945.31;5085000;28;19916;-72
2023/08/13 10:21:53;;;;;;;;;;;;;;;28.52;100.00;99946.19;5079633;28;20486;-72
2023/08/13 10:24:20;;;;;;;;;;;;;;;28.58;100.00;99941.66;5078714;28;20340;-72
2023/08/13 10:26:45;;;;;;;;;;;;;;;28.63;100.00;99932.78;5081505;28;20018;-71
2023/08/13 10:29:18;;;;;;;;;;;;;;;28.67;100.00;99934.75;5079801;28;20015;-71
2023/08/13 10:31:53;;;;;;;;;;;;;;;28.73;100.00;99928.34;5080630;28;19928;-72
2023/08/13 10:34:18;;;;;;;;;;;;;;;28.79;100.00;99927.31;5083771;28;20438;-72
2023/08/13 10:36:44;;;;;;;;;;;;;;;28.84;100.00;99924.66;5077186;28;19928;-72
2023/08/13 10:39:29;;;;;;;;;;;;;;;28.90;100.00;99923.66;5081656;28;19920;-73
2023/08/13 10:41:54;;;;;;;;;;;;;;;28.97;100.00;99922.63;5077185;28;20359;-72
2023/08/13 10:44:27;;;;;;;;;;;;;;;29.02;100.00;99919.97;5080762;28;19974;-72
2023/08/13 10:46:53;;;;;;;;;;;;;;;29.13;100.00;99916.28;5080962;28;20023;-73
2023/08/13 10:49:19;;;;;;;;;;;;;;;29.15;100.00;99914.97;5079225;28;19920;-72
2023/08/13 10:51:47;;;;;;;;;;;;;;;29.18;100.00;99908.19;5078960;28;19986;-73
2023/08/13 10:54:13;;;;;;;;;;;;;;;29.22;100.00;99904.69;5081392;28;20015;-73
2023/08/13 10:56:42;;;;;;;;;;;;;;;29.23;100.00;99911.78;5081214;28;19939;-73
2023/08/13 10:59:08;;;;;;;;;;;;;;;29.26;100.00;99905.03;5080435;28;20011;-72
2023/08/13 11:01:33;;;;;;;;;;;;;;;29.29;100.00;99904.50;5081179;28;20408;-72
2023/08/13 11:04:01;;;;;;;;;;;;;;;29.31;100.00;99902.34;5080939;28;19963;-72
2023/08/13 11:06:30;;;;;;;;;;;;;;;29.34;100.00;99901.84;5084654;28;19927;-71
2023/08/13 11:08:56;;;;;;;;;;;;;;;29.36;100.00;99898.88;5077671;28;19933;-73
2023/08/13 11:11:21;;;;;;;;;;;;;;;29.41;100.00;99901.66;5082667;28;20430;-72
2023/08/13 11:13:48;;;;;;;;;;;;;;;29.42;100.00;99893.25;5078520;28;19925;-72
2023/08/13 11:16:13;;;;;;;;;;;;;;;29.48;100.00;99903.09;5080384;28;20407;-73
2023/08/13 11:18:39;;;;;;;;;;;;;;;29.56;100.00;99897.19;5076354;28;19931;-72
2023/08/13 11:21:05;;;;;;;;;;;;;;;29.63;100.00;99900.50;5080454;28;19928;-72
2023/08/13 11:23:30;;;;;;;;;;;;;;;29.69;100.00;99885.88;5078368;28;19917;-73
2023/08/13 11:25:56;;;;;;;;;;;;;;;29.76;99.89;99887.53;5083743;28;20380;-72
2023/08/13 11:28:23;;;;;;;;;;;;;;;29.81;100.00;99885.69;5078451;28;19921;-72
2023/08/13 11:30:49;;;;;;;;;;;;;;;29.92;98.91;99889.34;5080989;28;19920;-72
2023/08/13 11:33:15;;;;;;;;;;;;;;;30.06;97.03;99882.34;5078920;28;20369;-73
2023/08/13 11:35:40;;;;;;;;;;;;;;;30.13;96.83;99882.97;5079677;28;19982;-72
2023/08/13 11:38:06;;;;;;;;;;;;;;;30.22;95.86;99881.38;5081291;28;20015;-72
2023/08/13 11:40:31;;;;;;;;;;;;;;;30.31;94.75;99874.34;5081651;28;19920;-72
2023/08/13 11:42:57;;;;;;;;;;;;;;;30.33;95.50;99866.75;5080093;28;19924;-71
2023/08/13 11:45:23;;;;;;;;;;;;;;;30.41;94.05;99874.41;5084096;28;19920;-72
2023/08/13 11:47:51;;;;;;;;;;;;;;;30.46;93.88;99870.88;5079787;28;20340;-73
2023/08/13 11:50:21;;;;;;;;;;;;;;;30.50;93.44;99864.69;5080934;28;20280;-72
2023/08/13 11:53:07;;;;;;;;;;;;;;;30.58;92.99;99870.69;5073075;28;19924;-72
2023/08/13 11:55:33;;;;;;;;;;;;;;;30.71;91.69;99867.47;5076429;28;19927;-73
2023/08/13 11:57:59;;;;;;;;;;;;;;;30.80;91.74;99855.00;5080142;28;19929;-72
2023/08/13 12:00:24;;;;;;;;;;;;;;;30.94;90.05;99856.09;5097110;28;19948;-73
2023/08/13 12:02:53;;;;;;;;;;;;;;;31.04;88.95;99852.63;5098048;28;19920;-73
2023/08/13 12:05:21;;;;;;;;;;;;;;;31.10;87.79;99852.38;5085454;28;19928;-73
2023/08/13 12:07:47;;;;;;;;;;;;;;;31.20;87.08;99849.66;5086056;28;20351;-73
2023/08/13 12:10:12;;;;;;;;;;;;;;;31.32;85.90;99843.94;5084309;28;19941;-73
2023/08/13 12:12:37;;;;;;;;;;;;;;;31.41;84.26;99844.19;5086143;28;19920;-73
2023/08/13 12:15:04;;;;;;;;;;;;;;;31.59;83.47;99835.50;5081444;28;19927;-70
2023/08/13 12:17:29;;;;;;;;;;;;;;;31.82;83.92;99828.66;5083237;28;19920;-72
2023/08/13 12:19:55;;;;;;;;;;;;;;;31.87;82.92;99832.19;5085850;28;19924;-72
2023/08/13 12:22:20;;;;;;;;;;;;;;;31.89;83.83;99829.19;5084001;28;19920;-72
2023/08/13 12:24:45;;;;;;;;;;;;;;;31.81;83.33;99822.38;5084679;28;19991;-73
2023/08/13 12:27:13;;;;;;;;;;;;;;;31.90;83.61;99819.91;5085925;28;19998;-73
2023/08/13 12:29:38;;;;;;;;;;;;;;;32.17;82.40;99814.94;5083410;28;19959;-72
2023/08/13 12:32:04;;;;;;;;;;;;;;;32.44;79.29;99812.69;5084927;28;20025;-73